Aérodrome :
LOGIN :

S'inscrire | Disclaimer

   EN    FR    IT 

 










Légende :    VFR   VFR Marginal   IFR   IFR Intensif   IFR Très Intensif
Visi : 
Plafond : 
>= 8 km
>= 3000ft
5 à 8 km
1000 à 3000 ft
1500m à 5 km
500 à 1000 ft
800 à 1500m
200 à 500 ft
< 800m
< 200 ft
Symboles :   Orages  Brouillard  Fortes neiges  Fortes précipitations  Vent > 20 kt
SIGMETs :   Divers  Orages  Givrage  Turbulence  Onde Orograph.  Cendres Volcan.







- Altitude de l'aérodrome : 306 ft
- Code IATA : EMA
- Voir les cartes d'approche


EGNX - Nottingham East Midlands

DERNIER METAR :
  • 231950Z 22015KT CAVOK 10/07 Q1009

METARs EXPIRÉS :
  • 231920Z 22016KT CAVOK 10/07 Q1009
  • 231850Z 23017KT 9999 FEW025 10/08 Q1009
  • 231820Z 23015KT 9999 FEW024 11/08 Q1009
  • 231750Z 23015KT 9999 FEW024 11/09 Q1009
  • 231720Z 21012KT 9999 SCT020 11/10 Q1009

TAF TAF EGNX
Valide du 23 à 18h jusqu'au 24 à 18h UTC


231654Z 2318/2418 20010KT 9999 FEW010 SCT025
TEMPO 2318/2402 22017G27KT
TEMPO 2400/2416 7000 RA BKN012
BECMG 2402/2405 22020G30KT
PROB40
TEMPO 2405/2410 26025G45KT 3000 +RA BKN006
BECMG 2410/2412 20010KT
TEMPO 2412/2418 21020G30KT
ATIS : +44 1332 852 852 (ext 3201)
Pas de NOTAMs connus pour ce terrain.
1 SIGMET publié pour la FIR London (EGTT) :
 
Onde orographique forte
EGTT SIGMET 02 VALID 231900/232300 EGRR
EGTT LONDON FIR SEV MTW FCST WI N5443 E00205 - N5356 W00137 - N5500 W00216 - N5500 W00100 - N5500 E00153 - N5443 E00205 SFC/FL150 STNR WKN=



MET'MAP, la Météo Aéronautique d'un coup d'oeil ! - Copyright ORBIFLY Décembre 2007 - Disclaimer

ORBIFLY MET'MAP TEAM :

Programmation & Développement : Alexandra Zaïnal
Conception & Développement : Baudouin d'Aumeries
Co-Programmation & Développement : Marc-Olivier Méhu
Soutien technique & logistique : Manuel Goepfert

Contact : metmap@orbifly.com




SOURCES & CREDITS :

   NOAA